Time;durP1;ratioP1;P1;durP2;ratioP2;P2;SDS_P1;SDS_P2;PMS_P1;PMS_P2;Temp;Humidity;BMP_temperature;BMP_pressure;BME280_temperature;BME280_humidity;BME280_pressure;Samples;Min_cycle;Max_cycle;Signal;HPM_P1;HPM_P2
2023/03/10 00:00:11;;;;;;;20.05;11.10;;;1.70;99.90;;;;;;5110418;28;20478;-60
2023/03/10 00:02:37;;;;;;;19.73;11.70;;;1.70;99.90;;;;;;5109956;28;20078;-61
2023/03/10 00:05:04;;;;;;;20.70;11.57;;;1.70;99.90;;;;;;5110266;28;20071;-61
2023/03/10 00:07:29;;;;;;;20.42;10.57;;;1.70;99.90;;;;;;5112021;28;20547;-61
2023/03/10 00:09:55;;;;;;;24.88;13.15;;;1.70;99.90;;;;;;5111392;28;20127;-61
2023/03/10 00:12:21;;;;;;;19.50;12.00;;;1.70;99.90;;;;;;5093240;28;20083;-59
2023/03/10 00:14:48;;;;;;;24.00;12.98;;;1.70;99.90;;;;;;5093799;28;20065;-60
2023/03/10 00:17:13;;;;;;;22.67;12.38;;;1.70;99.90;;;;;;5110415;28;20054;-60
2023/03/10 00:19:39;;;;;;;23.55;12.82;;;1.70;99.90;;;;;;5111847;28;20110;-60
2023/03/10 00:22:05;;;;;;;21.98;12.30;;;1.70;99.90;;;;;;5093180;28;20039;-60
2023/03/10 00:24:31;;;;;;;24.10;12.98;;;1.70;99.90;;;;;;5110015;28;20092;-60
2023/03/10 00:26:56;;;;;;;23.98;13.45;;;1.70;99.90;;;;;;5109707;28;20043;-60
2023/03/10 00:29:22;;;;;;;30.27;16.35;;;1.70;99.90;;;;;;5109962;28;20042;-61
2023/03/10 00:31:48;;;;;;;30.65;15.68;;;1.70;99.90;;;;;;5109702;28;20078;-59
2023/03/10 00:34:14;;;;;;;32.70;17.85;;;1.70;99.90;;;;;;5109850;28;20035;-60
2023/03/10 00:36:39;;;;;;;27.08;14.32;;;1.70;99.90;;;;;;5110543;28;20568;-60
2023/03/10 00:39:06;;;;;;;27.15;16.50;;;1.70;99.90;;;;;;5091711;28;20047;-60
2023/03/10 00:41:35;;;;;;;28.98;16.63;;;1.70;99.90;;;;;;5071309;28;1112885;-59
2023/03/10 00:44:02;;;;;;;31.33;16.95;;;1.70;99.90;;;;;;5112267;28;20416;-59
2023/03/10 00:46:28;;;;;;;31.55;17.67;;;1.70;99.90;;;;;;5111098;28;20063;-60
2023/03/10 00:48:54;;;;;;;36.60;18.80;;;1.80;99.90;;;;;;5111316;28;20510;-60
2023/03/10 00:51:21;;;;;;;32.08;17.98;;;1.80;99.90;;;;;;5109752;28;20043;-59
2023/03/10 00:53:48;;;;;;;34.15;18.65;;;1.80;99.90;;;;;;5111080;28;20039;-60
2023/03/10 00:56:22;;;;;;;34.45;18.73;;;1.80;99.90;;;;;;5110560;28;20035;-61
2023/03/10 00:58:57;;;;;;;32.13;17.90;;;1.80;99.90;;;;;;5111488;28;20492;-61
2023/03/10 01:01:27;;;;;;;32.80;18.80;;;1.80;99.90;;;;;;5088823;28;20544;-61
2023/03/10 01:03:55;;;;;;;31.00;17.65;;;1.80;99.90;;;;;;5083964;28;20036;-60
2023/03/10 01:06:21;;;;;;;24.83;14.30;;;1.80;99.90;;;;;;5089374;28;20055;-59
2023/03/10 01:08:47;;;;;;;26.52;13.77;;;1.80;99.90;;;;;;5090669;28;20040;-61
2023/03/10 01:11:19;;;;;;;26.40;14.70;;;1.80;99.90;;;;;;5086511;28;20040;-61
2023/03/10 01:13:45;;;;;;;21.63;12.70;;;1.80;99.90;;;;;;5071114;28;20040;-61
2023/03/10 01:16:11;;;;;;;21.42;13.15;;;1.80;99.90;;;;;;5053218;28;20044;-60
2023/03/10 01:18:37;;;;;;;19.70;11.23;;;1.80;99.90;;;;;;5070232;28;20082;-59
2023/03/10 01:21:04;;;;;;;20.08;11.95;;;1.90;99.90;;;;;;5069240;28;20477;-59
2023/03/10 01:23:30;;;;;;;20.10;12.02;;;1.80;99.90;;;;;;5070461;28;20128;-61
2023/03/10 01:25:56;;;;;;;19.00;10.52;;;1.80;99.90;;;;;;5087038;28;20086;-61
2023/03/10 01:28:25;;;;;;;18.27;10.93;;;1.90;99.90;;;;;;5110984;28;20119;-60
2023/03/10 01:30:50;;;;;;;19.77;11.07;;;1.80;99.90;;;;;;5111107;28;20200;-59
2023/03/10 01:33:17;;;;;;;20.40;11.90;;;1.90;99.90;;;;;;5110431;28;20484;-60
2023/03/10 01:35:43;;;;;;;18.77;10.63;;;1.90;99.90;;;;;;5110224;28;20433;-59
2023/03/10 01:38:09;;;;;;;19.90;11.40;;;1.90;99.90;;;;;;5094565;28;20040;-60
2023/03/10 01:40:36;;;;;;;18.85;11.15;;;1.90;99.90;;;;;;5114391;28;20081;-60
2023/03/10 01:43:23;;;;;;;19.67;11.05;;;1.90;99.90;;;;;;5114123;28;20046;-60
2023/03/10 01:45:51;;;;;;;20.90;11.27;;;1.90;99.90;;;;;;5115662;28;20119;-59
2023/03/10 01:48:19;;;;;;;17.90;10.07;;;1.90;99.90;;;;;;5095911;28;20046;-60
2023/03/10 01:50:47;;;;;;;18.42;10.40;;;1.90;99.90;;;;;;5115338;28;20071;-60
2023/03/10 01:53:16;;;;;;;18.67;10.13;;;1.90;99.90;;;;;;5113444;28;20114;-60
2023/03/10 01:55:48;;;;;;;17.00;9.85;;;1.90;99.90;;;;;;5114652;28;20491;-60
2023/03/10 01:58:15;;;;;;;17.83;10.10;;;1.90;99.90;;;;;;5113275;28;20042;-60
2023/03/10 02:00:42;;;;;;;14.27;8.85;;;1.90;99.90;;;;;;5114102;28;20075;-59
2023/03/10 02:03:19;;;;;;;17.58;9.48;;;1.90;99.90;;;;;;5112391;28;20047;-59
2023/03/10 02:05:48;;;;;;;14.27;8.40;;;1.90;99.90;;;;;;5114187;28;20044;-60
2023/03/10 02:08:15;;;;;;;17.52;9.30;;;1.90;99.90;;;;;;5114137;28;20063;-61
2023/03/10 02:10:41;;;;;;;20.50;10.90;;;1.90;99.90;;;;;;5106203;28;20551;-61
2023/03/10 02:13:07;;;;;;;17.20;10.02;;;1.90;99.90;;;;;;5094081;28;20123;-59
2023/03/10 02:15:33;;;;;;;14.80;8.90;;;1.90;99.90;;;;;;5093328;28;20047;-60
2023/03/10 02:18:00;;;;;;;15.23;8.98;;;1.90;99.90;;;;;;5093530;28;20111;-60
2023/03/10 02:20:32;;;;;;;16.75;9.57;;;1.90;99.90;;;;;;5092772;28;20082;-60
2023/03/10 02:22:57;;;;;;;16.75;10.07;;;1.90;99.90;;;;;;5093783;28;20044;-61
2023/03/10 02:25:48;;;;;;;16.73;9.50;;;1.90;99.90;;;;;;5092944;28;20035;-60
2023/03/10 02:28:14;;;;;;;18.52;9.75;;;1.90;99.90;;;;;;5088978;28;20048;-59
2023/03/10 02:30:47;;;;;;;17.35;9.82;;;1.90;99.90;;;;;;5073228;28;20040;-59
2023/03/10 02:33:25;;;;;;;17.30;9.27;;;1.90;99.90;;;;;;5072199;28;20043;-59
2023/03/10 02:35:51;;;;;;;17.75;10.43;;;1.90;99.90;;;;;;5081957;28;20462;-61
2023/03/10 02:38:17;;;;;;;17.77;11.23;;;1.90;99.90;;;;;;5071350;28;20060;-59
2023/03/10 02:40:46;;;;;;;18.55;10.60;;;1.90;99.90;;;;;;5072537;28;20486;-60
2023/03/10 02:43:17;;;;;;;17.98;10.00;;;1.80;99.90;;;;;;5093000;28;20391;-60
2023/03/10 02:45:45;;;;;;;17.42;10.05;;;1.80;99.90;;;;;;5093297;28;20028;-60
2023/03/10 02:48:13;;;;;;;17.13;9.60;;;1.80;99.90;;;;;;5092242;28;20190;-59
2023/03/10 02:50:41;;;;;;;18.50;10.32;;;1.80;99.90;;;;;;5104733;28;20492;-60
2023/03/10 02:53:18;;;;;;;17.88;10.32;;;1.80;99.90;;;;;;5111642;28;20040;-61
2023/03/10 02:55:44;;;;;;;19.85;10.68;;;1.80;99.90;;;;;;5114313;28;20437;-61
2023/03/10 02:58:10;;;;;;;18.08;10.13;;;1.80;99.90;;;;;;5111396;28;20457;-61
2023/03/10 03:00:42;;;;;;;17.55;9.85;;;1.80;99.90;;;;;;5113103;28;20379;-61
2023/03/10 03:03:10;;;;;;;20.58;11.52;;;1.80;99.90;;;;;;5112328;28;20042;-61
2023/03/10 03:05:37;;;;;;;21.02;12.48;;;1.70;99.90;;;;;;5112904;28;20075;-61
2023/03/10 03:08:03;;;;;;;22.80;12.50;;;1.70;99.90;;;;;;5112513;28;20039;-59
2023/03/10 03:10:29;;;;;;;21.88;12.48;;;1.80;99.90;;;;;;5095676;28;20461;-59
2023/03/10 03:12:55;;;;;;;20.80;12.60;;;1.80;99.90;;;;;;5094988;28;20071;-59
2023/03/10 03:15:21;;;;;;;22.67;12.65;;;1.80;99.90;;;;;;5112149;28;20385;-60
2023/03/10 03:17:47;;;;;;;20.98;13.23;;;1.80;99.90;;;;;;5112241;28;20051;-59
2023/03/10 03:20:13;;;;;;;20.38;11.50;;;1.80;99.90;;;;;;5111235;28;20031;-59
2023/03/10 03:22:40;;;;;;;23.63;14.18;;;1.80;99.90;;;;;;5112282;28;20039;-59
2023/03/10 03:25:07;;;;;;;22.33;12.80;;;1.80;99.90;;;;;;5112002;28;20581;-60
2023/03/10 03:27:33;;;;;;;23.63;13.30;;;1.80;99.90;;;;;;5111685;28;20100;-60
2023/03/10 03:29:59;;;;;;;25.35;14.77;;;1.80;99.90;;;;;;5112244;28;20426;-60
2023/03/10 03:32:25;;;;;;;25.35;13.82;;;1.80;99.90;;;;;;5112597;28;20044;-60
2023/03/10 03:34:51;;;;;;;25.80;13.15;;;1.80;99.90;;;;;;5111540;28;20046;-61
2023/03/10 03:37:16;;;;;;;25.45;14.18;;;1.70;99.90;;;;;;5112560;28;20499;-61
2023/03/10 03:39:42;;;;;;;22.48;13.23;;;1.70;99.90;;;;;;5113642;28;20118;-61
2023/03/10 03:42:08;;;;;;;26.98;15.48;;;1.60;99.90;;;;;;5111831;28;20051;-62
2023/03/10 03:44:33;;;;;;;22.80;12.90;;;1.60;99.90;;;;;;5112061;28;20040;-61
2023/03/10 03:46:59;;;;;;;23.05;14.63;;;1.60;99.90;;;;;;5112815;28;20036;-61
2023/03/10 03:49:25;;;;;;;22.40;14.10;;;1.60;99.90;;;;;;5110367;28;20738;-61
2023/03/10 03:51:50;;;;;;;26.15;15.43;;;1.60;99.90;;;;;;5111849;28;20113;-61
2023/03/10 03:54:16;;;;;;;24.67;14.77;;;1.50;99.90;;;;;;5110619;28;20039;-61
2023/03/10 03:56:42;;;;;;;23.90;14.30;;;1.60;99.90;;;;;;5113324;28;20043;-60
2023/03/10 03:59:07;;;;;;;24.45;14.45;;;1.60;99.90;;;;;;5111124;28;20045;-60
2023/03/10 04:01:33;;;;;;;25.35;14.93;;;1.60;99.90;;;;;;5110637;28;20082;-60
2023/03/10 04:03:59;;;;;;;25.08;14.68;;;1.60;99.90;;;;;;5112668;28;20072;-60
2023/03/10 04:06:24;;;;;;;24.85;13.40;;;1.60;99.90;;;;;;5112218;28;20040;-60
2023/03/10 04:08:50;;;;;;;26.90;15.52;;;1.60;99.90;;;;;;5110803;28;20075;-60
2023/03/10 04:11:16;;;;;;;28.40;15.45;;;1.50;99.90;;;;;;5112224;28;20046;-59
2023/03/10 04:13:44;;;;;;;25.30;15.52;;;1.60;99.90;;;;;;5111151;28;20039;-60
2023/03/10 04:16:10;;;;;;;23.23;13.63;;;1.60;99.90;;;;;;5110017;28;20415;-60
2023/03/10 04:18:36;;;;;;;27.42;15.80;;;1.60;99.90;;;;;;5112702;28;20085;-60
2023/03/10 04:21:02;;;;;;;27.55;15.32;;;1.60;99.90;;;;;;5111372;28;20127;-60
2023/03/10 04:23:27;;;;;;;27.63;16.52;;;1.50;99.90;;;;;;5093379;28;20480;-60
2023/03/10 04:25:53;;;;;;;26.73;14.52;;;1.50;99.90;;;;;;5111213;28;20395;-60
2023/03/10 04:28:19;;;;;;;25.85;15.82;;;1.60;99.90;;;;;;5110755;28;20082;-59
2023/03/10 04:30:45;;;;;;;25.75;15.52;;;1.60;99.90;;;;;;5110821;28;20036;-59
2023/03/10 04:33:11;;;;;;;25.65;14.40;;;1.60;99.90;;;;;;5111916;28;20052;-60
2023/03/10 04:35:42;;;;;;;26.27;15.27;;;1.50;99.90;;;;;;5094229;28;20047;-59
2023/03/10 04:38:08;;;;;;;26.98;15.93;;;1.60;99.90;;;;;;5109803;28;20043;-59
2023/03/10 04:40:34;;;;;;;26.88;15.40;;;1.50;99.90;;;;;;5110815;28;20035;-61
2023/03/10 04:43:00;;;;;;;23.42;13.50;;;1.50;99.90;;;;;;5112522;28;20377;-60
2023/03/10 04:45:26;;;;;;;23.40;14.70;;;1.50;99.90;;;;;;5110165;28;20039;-60
2023/03/10 04:47:51;;;;;;;24.50;13.93;;;1.50;99.90;;;;;;5111049;28;20055;-59
2023/03/10 04:50:17;;;;;;;25.25;14.43;;;1.50;99.90;;;;;;5110470;28;20082;-60
2023/03/10 04:52:46;;;;;;;25.90;13.35;;;1.50;99.90;;;;;;5110453;28;20093;-60
2023/03/10 04:55:12;;;;;;;26.33;13.80;;;1.50;99.90;;;;;;5111655;28;20039;-59
2023/03/10 04:57:38;;;;;;;24.05;13.75;;;1.50;99.90;;;;;;5093187;28;20085;-60
2023/03/10 05:00:06;;;;;;;25.63;14.48;;;1.40;99.90;;;;;;5112058;28;20039;-60
2023/03/10 05:02:33;;;;;;;24.40;14.27;;;1.40;99.90;;;;;;5094119;28;20043;-60
2023/03/10 05:05:00;;;;;;;26.95;15.48;;;1.30;99.90;;;;;;5111515;28;20075;-59
2023/03/10 05:07:27;;;;;;;26.23;14.85;;;1.30;99.90;;;;;;5110680;28;20047;-59
2023/03/10 05:09:53;;;;;;;29.70;16.40;;;1.30;99.90;;;;;;5110787;28;20058;-59
2023/03/10 05:12:19;;;;;;;30.20;16.60;;;1.20;99.90;;;;;;5109507;28;20044;-59
2023/03/10 05:14:45;;;;;;;27.58;14.88;;;1.20;99.90;;;;;;5116181;28;20039;-60
2023/03/10 05:17:11;;;;;;;34.05;17.33;;;1.20;99.90;;;;;;5114148;28;20115;-60
2023/03/10 05:19:36;;;;;;;34.28;17.40;;;1.20;99.90;;;;;;5114064;28;20039;-61
2023/03/10 05:22:04;;;;;;;35.85;18.67;;;1.20;99.90;;;;;;5114817;28;20062;-60
2023/03/10 05:24:31;;;;;;;38.35;19.42;;;1.10;99.90;;;;;;5095572;28;20043;-60
2023/03/10 05:26:56;;;;;;;39.55;20.15;;;1.10;99.90;;;;;;5093546;28;20485;-61
2023/03/10 05:29:22;;;;;;;36.75;19.95;;;1.10;99.90;;;;;;5094790;28;20070;-60
2023/03/10 05:31:48;;;;;;;43.63;22.05;;;1.10;99.90;;;;;;5095441;28;20040;-59
2023/03/10 05:34:14;;;;;;;40.53;21.38;;;1.10;99.90;;;;;;5093160;28;20102;-59
2023/03/10 05:36:41;;;;;;;48.47;23.23;;;1.10;99.90;;;;;;5095584;28;20489;-60
2023/03/10 05:39:08;;;;;;;40.83;21.67;;;1.10;99.90;;;;;;5076392;28;20094;-60
2023/03/10 05:41:35;;;;;;;41.63;22.85;;;1.10;99.90;;;;;;5093214;28;20059;-60
2023/03/10 05:44:00;;;;;;;39.17;20.60;;;1.00;99.90;;;;;;5093971;28;20040;-60
2023/03/10 05:46:26;;;;;;;44.90;22.92;;;1.10;99.90;;;;;;5093673;28;20036;-61
2023/03/10 05:48:52;;;;;;;40.63;22.42;;;1.10;99.90;;;;;;5094523;28;20377;-60
2023/03/10 05:51:18;;;;;;;38.58;22.25;;;1.00;99.90;;;;;;5094711;28;20110;-59
2023/03/10 05:53:44;;;;;;;47.17;23.05;;;1.00;99.90;;;;;;5089631;28;20119;-60
2023/03/10 05:56:13;;;;;;;39.72;21.02;;;1.00;99.90;;;;;;5074053;28;20127;-60
2023/03/10 05:58:40;;;;;;;42.47;22.65;;;1.00;99.90;;;;;;5056838;28;20045;-59
2023/03/10 06:01:06;;;;;;;40.72;20.05;;;1.00;99.90;;;;;;5072075;28;20033;-61
2023/03/10 06:03:32;;;;;;;43.67;19.75;;;1.00;99.90;;;;;;5073591;28;20043;-60
2023/03/10 06:05:58;;;;;;;43.03;20.95;;;1.00;99.90;;;;;;5085731;28;20120;-60
2023/03/10 06:08:26;;;;;;;38.05;21.15;;;1.00;99.90;;;;;;5092408;28;20127;-59
2023/03/10 06:10:53;;;;;;;34.55;19.45;;;1.00;99.90;;;;;;5093532;28;20032;-60
2023/03/10 06:13:19;;;;;;;33.35;17.23;;;1.00;99.90;;;;;;5094030;28;20050;-59
2023/03/10 06:15:53;;;;;;;29.70;16.77;;;1.00;99.90;;;;;;5092402;28;20050;-61
2023/03/10 06:18:19;;;;;;;33.63;18.05;;;1.00;99.90;;;;;;5092872;28;20089;-61
2023/03/10 06:20:46;;;;;;;29.95;16.20;;;1.00;99.90;;;;;;5093394;28;20051;-61
2023/03/10 06:23:13;;;;;;;31.13;16.15;;;1.00;99.90;;;;;;5091612;28;20597;-60
2023/03/10 06:25:39;;;;;;;31.17;16.45;;;1.00;99.90;;;;;;5094407;28;20051;-60
2023/03/10 06:28:05;;;;;;;30.20;16.67;;;1.00;99.90;;;;;;5092837;28;20055;-60
2023/03/10 06:30:31;;;;;;;34.97;18.48;;;1.00;99.90;;;;;;5092439;28;20111;-59
2023/03/10 06:32:59;;;;;;;37.55;21.05;;;1.00;99.90;;;;;;5093047;28;20046;-60
2023/03/10 06:35:25;;;;;;;32.95;17.25;;;1.00;99.90;;;;;;5093707;28;20040;-61
2023/03/10 06:37:50;;;;;;;29.13;15.98;;;1.00;99.90;;;;;;5093376;28;20067;-60
2023/03/10 06:40:16;;;;;;;33.95;17.60;;;1.00;99.90;;;;;;5093509;28;20458;-61
2023/03/10 06:42:43;;;;;;;43.03;20.20;;;1.00;99.90;;;;;;5092586;28;20051;-61
2023/03/10 06:45:13;;;;;;;31.27;17.83;;;1.00;99.90;;;;;;5091428;28;20100;-61
2023/03/10 06:47:38;;;;;;;35.08;17.63;;;0.90;99.90;;;;;;5076197;28;20389;-59
2023/03/10 06:50:05;;;;;;;33.30;17.27;;;1.00;99.90;;;;;;5091886;28;20040;-60
2023/03/10 06:52:34;;;;;;;31.70;17.92;;;1.00;99.90;;;;;;5092636;28;20044;-60
2023/03/10 06:55:03;;;;;;;31.92;16.85;;;1.00;99.90;;;;;;5092249;28;20040;-62
2023/03/10 06:57:29;;;;;;;29.90;16.00;;;1.00;99.90;;;;;;5091494;28;20036;-61
2023/03/10 06:59:55;;;;;;;34.13;18.23;;;1.00;99.90;;;;;;5092801;28;20491;-60
2023/03/10 07:02:21;;;;;;;31.88;17.23;;;1.00;99.90;;;;;;5105249;28;20051;-60
2023/03/10 07:04:46;;;;;;;30.63;17.17;;;1.00;99.90;;;;;;5113496;28;20042;-61
2023/03/10 07:07:12;;;;;;;29.60;15.25;;;1.00;99.90;;;;;;5112022;28;20069;-61
2023/03/10 07:09:38;;;;;;;25.42;13.68;;;1.00;99.90;;;;;;5112328;28;20074;-61
2023/03/10 07:12:04;;;;;;;25.25;13.63;;;1.00;99.90;;;;;;5105795;28;20067;-60
2023/03/10 07:14:30;;;;;;;26.70;13.35;;;1.10;99.90;;;;;;5092063;28;20493;-62
2023/03/10 07:16:56;;;;;;;21.83;11.98;;;1.20;99.90;;;;;;5092439;28;20032;-60
2023/03/10 07:19:24;;;;;;;24.85;11.32;;;1.20;99.90;;;;;;5070596;28;20123;-61
2023/03/10 07:21:49;;;;;;;21.77;12.18;;;1.20;99.90;;;;;;5073077;28;20036;-61
2023/03/10 07:24:16;;;;;;;19.38;10.77;;;1.20;99.90;;;;;;5070680;28;20043;-61
2023/03/10 07:26:42;;;;;;;22.50;12.20;;;1.20;99.90;;;;;;5054656;28;20059;-60
2023/03/10 07:29:08;;;;;;;21.80;11.35;;;1.30;99.90;;;;;;5074846;28;20036;-61
2023/03/10 07:31:33;;;;;;;20.25;11.63;;;1.30;99.90;;;;;;5089325;28;20040;-61
2023/03/10 07:34:00;;;;;;;21.33;11.15;;;1.30;99.90;;;;;;5071461;28;20484;-61
2023/03/10 07:36:28;;;;;;;22.35;11.90;;;1.30;99.90;;;;;;5071021;28;20044;-61
2023/03/10 07:38:53;;;;;;;23.08;12.70;;;1.30;99.90;;;;;;5089055;28;20040;-62
2023/03/10 07:41:20;;;;;;;21.63;11.90;;;1.40;99.90;;;;;;5105383;28;20518;-63
2023/03/10 07:43:49;;;;;;;19.70;10.98;;;1.40;99.90;;;;;;5082276;28;20092;-61
2023/03/10 07:46:16;;;;;;;21.67;11.75;;;1.40;99.90;;;;;;5086960;28;20040;-61
2023/03/10 07:48:42;;;;;;;20.25;11.75;;;1.50;99.90;;;;;;5089803;28;20036;-60
2023/03/10 07:51:08;;;;;;;22.33;11.48;;;1.50;99.90;;;;;;5088239;28;20036;-62
2023/03/10 07:53:34;;;;;;;21.77;11.73;;;1.50;99.90;;;;;;5088219;28;20112;-61
2023/03/10 07:56:06;;;;;;;18.17;10.45;;;1.50;99.90;;;;;;5056724;28;20036;-61
2023/03/10 07:58:33;;;;;;;20.48;12.38;;;1.50;99.90;;;;;;5089803;28;20062;-61
2023/03/10 08:00:59;;;;;;;22.75;11.63;;;1.50;99.90;;;;;;5089250;28;20393;-61
2023/03/10 08:03:27;;;;;;;20.80;11.90;;;1.50;99.90;;;;;;5069635;28;20119;-62
2023/03/10 08:05:53;;;;;;;23.27;12.30;;;1.50;99.90;;;;;;5081899;28;20044;-60
2023/03/10 08:08:19;;;;;;;23.55;12.68;;;1.50;99.90;;;;;;5062343;28;20894;-61
2023/03/10 08:10:45;;;;;;;21.15;13.05;;;1.50;99.90;;;;;;5085430;28;20127;-62
2023/03/10 08:13:11;;;;;;;24.08;13.00;;;1.50;99.90;;;;;;5088743;28;20036;-60
2023/03/10 08:15:38;;;;;;;24.58;12.93;;;1.50;99.90;;;;;;5095019;28;20059;-61
2023/03/10 08:18:06;;;;;;;25.02;13.73;;;1.50;99.90;;;;;;5080968;28;20128;-62
2023/03/10 08:20:34;;;;;;;23.92;13.15;;;1.50;99.90;;;;;;5087926;28;20408;-61
2023/03/10 08:23:00;;;;;;;23.05;12.88;;;1.50;99.90;;;;;;5088354;28;20028;-60
2023/03/10 08:25:26;;;;;;;26.70;13.85;;;1.50;99.90;;;;;;5087778;28;20032;-60
2023/03/10 08:27:51;;;;;;;24.65;13.43;;;1.50;99.90;;;;;;5087909;28;20475;-61
2023/03/10 08:30:17;;;;;;;24.88;14.00;;;1.50;99.90;;;;;;5091568;28;20051;-61
2023/03/10 08:32:43;;;;;;;27.35;14.93;;;1.50;99.90;;;;;;5090633;28;20036;-60
2023/03/10 08:35:09;;;;;;;28.20;13.95;;;1.50;99.90;;;;;;5100332;28;20105;-60
2023/03/10 08:37:35;;;;;;;27.52;13.80;;;1.40;99.90;;;;;;5088484;28;20044;-61
2023/03/10 08:40:01;;;;;;;21.88;12.30;;;1.40;99.90;;;;;;5070604;28;20090;-60
2023/03/10 08:42:27;;;;;;;25.98;13.70;;;1.40;99.90;;;;;;5086835;28;20052;-59
2023/03/10 08:44:56;;;;;;;24.92;13.88;;;1.40;99.90;;;;;;5087178;28;20410;-60
2023/03/10 08:47:22;;;;;;;26.98;14.80;;;1.40;99.90;;;;;;5083442;28;20048;-59
2023/03/10 08:49:48;;;;;;;24.80;13.00;;;1.40;99.90;;;;;;5081542;28;20039;-60
2023/03/10 08:52:14;;;;;;;27.27;13.35;;;1.40;99.90;;;;;;5070895;28;20085;-59
2023/03/10 08:54:40;;;;;;;27.38;14.85;;;1.40;99.90;;;;;;5071120;28;20036;-59
2023/03/10 08:57:06;;;;;;;27.40;15.25;;;1.40;99.90;;;;;;5071923;28;20058;-60
2023/03/10 08:59:32;;;;;;;21.17;12.32;;;1.40;99.90;;;;;;5086527;28;20045;-59
2023/03/10 09:01:57;;;;;;;27.60;15.10;;;1.40;99.90;;;;;;5090918;28;20072;-59
2023/03/10 09:04:23;;;;;;;26.27;14.45;;;1.40;99.90;;;;;;5094059;28;20132;-59
2023/03/10 09:06:49;;;;;;;23.83;13.18;;;1.40;99.90;;;;;;5091987;28;20036;-59
2023/03/10 09:09:14;;;;;;;26.27;14.52;;;1.50;99.90;;;;;;5087517;28;20411;-59
2023/03/10 09:11:41;;;;;;;24.38;13.70;;;1.40;99.90;;;;;;5112052;28;20392;-60
2023/03/10 09:14:08;;;;;;;25.88;14.52;;;1.40;99.90;;;;;;5112059;28;20078;-59
2023/03/10 09:16:35;;;;;;;28.50;14.15;;;1.40;99.90;;;;;;5095175;28;20071;-59
2023/03/10 09:19:01;;;;;;;23.52;12.85;;;1.40;99.90;;;;;;5097547;28;20131;-59
2023/03/10 09:21:28;;;;;;;24.80;12.95;;;1.50;99.90;;;;;;5087622;28;20040;-59
2023/03/10 09:23:54;;;;;;;21.60;11.77;;;1.50;99.90;;;;;;5092386;28;20036;-60
2023/03/10 09:26:20;;;;;;;19.38;10.50;;;1.50;99.90;;;;;;5073395;28;20584;-59
2023/03/10 09:28:48;;;;;;;21.58;11.68;;;1.50;99.90;;;;;;5098419;28;20048;-60
2023/03/10 09:31:20;;;;;;;17.25;9.77;;;1.40;99.90;;;;;;5109753;28;20173;-59
2023/03/10 09:33:46;;;;;;;19.38;10.23;;;1.40;99.90;;;;;;5090615;28;20047;-59
2023/03/10 09:36:11;;;;;;;20.65;12.10;;;1.50;99.90;;;;;;5073620;28;20044;-59
2023/03/10 09:38:37;;;;;;;20.27;10.65;;;1.50;99.90;;;;;;5086466;28;20035;-59
2023/03/10 09:41:18;;;;;;;21.38;11.48;;;1.40;99.90;;;;;;5077197;28;20092;-60
2023/03/10 09:43:54;;;;;;;23.23;12.35;;;1.50;99.90;;;;;;5071049;28;20070;-60
2023/03/10 09:46:37;;;;;;;23.02;12.23;;;1.50;99.90;;;;;;5057259;28;20029;-59
2023/03/10 09:49:25;;;;;;;23.15;11.77;;;1.50;99.90;;;;;;5086663;28;20063;-58
2023/03/10 09:51:50;;;;;;;23.98;12.73;;;1.60;99.90;;;;;;5063688;28;20039;-59
2023/03/10 09:54:22;;;;;;;19.20;11.13;;;1.60;99.90;;;;;;5089977;28;20047;-59
2023/03/10 09:56:47;;;;;;;21.58;12.55;;;1.60;99.90;;;;;;5111643;28;20441;-58
2023/03/10 09:59:25;;;;;;;24.63;13.85;;;1.60;99.90;;;;;;5109987;28;20049;-59
2023/03/10 10:01:52;;;;;;;30.92;14.55;;;1.60;99.90;;;;;;5093657;28;20039;-58
2023/03/10 10:04:38;;;;;;;26.15;14.10;;;1.60;99.90;;;;;;5102065;28;20044;-59
2023/03/10 10:07:13;;;;;;;24.83;13.98;;;1.60;99.90;;;;;;5098439;28;20739;-59
2023/03/10 10:10:08;;;;;;;26.73;15.48;;;1.60;99.90;;;;;;5111188;28;20126;-59
2023/03/10 10:12:34;;;;;;;29.30;16.70;;;1.60;99.90;;;;;;5111551;28;20036;-59
2023/03/10 10:15:13;;;;;;;29.55;16.75;;;1.60;99.90;;;;;;5110451;28;20661;-58
2023/03/10 10:18:05;;;;;;;25.08;12.45;;;1.60;99.90;;;;;;5092234;28;20419;-59
2023/03/10 10:20:37;;;;;;;25.10;13.60;;;1.60;99.90;;;;;;5080738;28;20036;-59
2023/03/10 10:23:13;;;;;;;26.75;13.30;;;1.60;99.90;;;;;;5072750;28;20032;-59
2023/03/10 10:25:39;;;;;;;28.33;15.80;;;1.60;99.90;;;;;;5090284;28;20040;-59
2023/03/10 10:28:27;;;;;;;28.80;14.70;;;1.60;99.90;;;;;;5090463;28;20130;-59
2023/03/10 10:31:10;;;;;;;28.77;15.85;;;1.60;99.90;;;;;;5089589;28;20047;-59
2023/03/10 10:33:55;;;;;;;29.77;15.75;;;1.60;99.90;;;;;;5106653;28;20051;-59
2023/03/10 10:36:45;;;;;;;27.20;15.02;;;1.70;99.90;;;;;;5108786;28;20126;-60
2023/03/10 10:39:31;;;;;;;27.50;15.55;;;1.70;99.90;;;;;;5098603;28;20051;-60
2023/03/10 10:42:26;;;;;;;26.48;15.77;;;1.70;99.90;;;;;;5095680;28;20059;-60
2023/03/10 10:45:13;;;;;;;28.73;15.90;;;1.70;99.90;;;;;;5087066;28;20051;-59
2023/03/10 10:47:48;;;;;;;39.60;23.65;;;1.70;99.90;;;;;;5069421;28;20052;-59
2023/03/10 10:50:23;;;;;;;30.67;18.77;;;1.80;99.90;;;;;;5079937;28;20060;-59
2023/03/10 10:53:11;;;;;;;29.60;17.35;;;1.70;99.90;;;;;;5087756;28;20107;-59
2023/03/10 10:55:37;;;;;;;30.30;17.13;;;1.70;99.90;;;;;;5091277;28;20035;-59
2023/03/10 10:58:06;;;;;;;24.48;16.58;;;1.70;99.90;;;;;;5107904;28;20075;-59
2023/03/10 11:00:32;;;;;;;30.13;17.27;;;1.70;99.90;;;;;;5082201;28;20418;-59
2023/03/10 11:02:59;;;;;;;30.60;17.80;;;1.70;99.90;;;;;;5094607;28;20358;-60
2023/03/10 11:05:36;;;;;;;32.97;18.00;;;1.80;99.90;;;;;;5075980;28;20040;-59
2023/03/10 11:08:21;;;;;;;29.88;17.13;;;1.80;99.90;;;;;;5089387;28;20412;-60
2023/03/10 11:10:55;;;;;;;30.80;18.17;;;1.80;99.90;;;;;;5088853;28;20392;-59
2023/03/10 11:13:49;;;;;;;30.30;17.45;;;1.80;99.90;;;;;;5089550;28;20089;-59
2023/03/10 11:16:24;;;;;;;31.10;18.63;;;1.80;99.90;;;;;;5089790;28;20044;-59
2023/03/10 11:19:31;;;;;;;34.03;18.90;;;1.80;99.90;;;;;;5088498;28;20044;-60
2023/03/10 11:22:06;;;;;;;32.55;17.65;;;1.80;99.90;;;;;;5039431;28;20110;-59
2023/03/10 11:24:49;;;;;;;33.65;19.67;;;1.80;99.90;;;;;;5051687;28;20032;-60
2023/03/10 11:27:39;;;;;;;32.03;17.40;;;1.90;99.90;;;;;;5069039;28;20447;-59
2023/03/10 11:30:29;;;;;;;33.83;18.30;;;1.90;99.90;;;;;;5079552;28;20506;-59
2023/03/10 11:33:04;;;;;;;33.55;17.27;;;2.00;99.90;;;;;;5109046;28;20054;-60
2023/03/10 11:35:30;;;;;;;;;;;2.00;99.90;;;;;;5111211;28;20047;-60
2023/03/10 11:38:08;;;;;;;32.05;17.75;;;2.10;99.90;;;;;;5109542;28;19931;-60
2023/03/10 11:40:41;;;;;;;33.13;18.15;;;2.10;99.90;;;;;;5109002;28;20043;-60
2023/03/10 11:43:58;;;;;;;29.00;15.15;;;2.20;99.90;;;;;;5108852;28;20106;-59
2023/03/10 11:46:51;;;;;;;27.88;15.32;;;2.30;99.90;;;;;;5036448;28;20047;-59
2023/03/10 11:49:23;;;;;;;27.45;14.13;;;2.20;99.90;;;;;;5068238;28;20052;-59
2023/03/10 11:51:53;;;;;;;30.85;16.33;;;2.20;99.90;;;;;;5073848;28;20132;-61
2023/03/10 11:54:24;;;;;;;29.35;15.77;;;2.20;99.90;;;;;;5087598;28;20148;-59
2023/03/10 11:56:51;;;;;;;28.10;14.50;;;2.20;99.90;;;;;;5071720;28;20047;-59
2023/03/10 11:59:26;;;;;;;25.65;13.98;;;2.20;99.90;;;;;;5087261;28;20036;-60
2023/03/10 12:02:03;;;;;;;30.33;15.40;;;2.20;99.90;;;;;;5088734;28;20506;-59
2023/03/10 12:04:42;;;;;;;31.02;14.65;;;2.30;99.90;;;;;;5088375;28;20032;-58
2023/03/10 12:07:28;;;;;;;29.05;13.73;;;2.30;99.90;;;;;;5084153;28;20032;-59
2023/03/10 12:09:57;;;;;;;25.42;13.27;;;2.30;99.90;;;;;;5109297;28;20047;-60
2023/03/10 12:12:30;;;;;;;24.92;12.32;;;2.30;99.90;;;;;;5108718;28;20035;-60
2023/03/10 12:14:59;;;;;;;24.80;13.18;;;2.30;99.90;;;;;;5089278;28;20054;-60
2023/03/10 12:17:26;;;;;;;24.83;12.88;;;2.30;99.90;;;;;;5088300;28;20122;-59
2023/03/10 12:20:09;;;;;;;27.08;14.32;;;2.30;99.90;;;;;;5091331;28;20093;-59
2023/03/10 12:22:37;;;;;;;25.38;13.10;;;2.30;99.90;;;;;;5099887;28;20027;-59
2023/03/10 12:25:24;;;;;;;24.40;13.80;;;2.30;99.90;;;;;;5112756;28;20036;-59
2023/03/10 12:28:14;;;;;;;23.45;12.65;;;2.30;99.90;;;;;;5108820;28;20051;-60
2023/03/10 12:30:50;;;;;;;23.38;13.27;;;2.30;99.90;;;;;;5109967;28;20139;-60
2023/03/10 12:33:36;;;;;;;;;;;2.30;99.90;;;;;;5112919;28;20039;-60
2023/03/10 12:36:23;;;;;;;17.67;10.10;;;2.30;99.90;;;;;;5090725;28;20477;-59
2023/03/10 12:38:52;;;;;;;18.95;9.63;;;2.30;99.90;;;;;;5094404;28;20057;-60
2023/03/10 12:41:27;;;;;;;18.27;7.93;;;2.30;99.90;;;;;;5110606;28;20056;-59
2023/03/10 12:44:21;;;;;;;18.20;10.88;;;2.20;99.90;;;;;;5093016;28;20051;-59
2023/03/10 12:46:48;;;;;;;20.00;8.38;;;2.20;99.90;;;;;;5089413;28;20040;-59
2023/03/10 12:49:22;;;;;;;19.52;8.70;;;2.20;99.90;;;;;;5087446;28;20044;-60